sensor_id;sensor_type;location;lat;lon;timestamp;temperature;humidity
65044;DHT22;51617;48.158;16.464;2023-02-02T00:00:51;4.10;99.90
65044;DHT22;51617;48.158;16.464;2023-02-02T00:03:17;4.10;99.90
65044;DHT22;51617;48.158;16.464;2023-02-02T00:05:51;4.00;99.90
65044;DHT22;51617;48.158;16.464;2023-02-02T00:08:18;3.90;99.90
65044;DHT22;51617;48.158;16.464;2023-02-02T00:10:44;3.80;99.90
65044;DHT22;51617;48.158;16.464;2023-02-02T00:13:11;3.60;99.90
65044;DHT22;51617;48.158;16.464;2023-02-02T00:15:37;3.40;99.90
65044;DHT22;51617;48.158;16.464;2023-02-02T00:18:03;3.30;99.90
65044;DHT22;51617;48.158;16.464;2023-02-02T00:20:28;3.10;99.90
65044;DHT22;51617;48.158;16.464;2023-02-02T00:22:55;3.00;99.90
65044;DHT22;51617;48.158;16.464;2023-02-02T00:25:20;3.00;99.90
65044;DHT22;51617;48.158;16.464;2023-02-02T00:27:46;2.90;99.90
65044;DHT22;51617;48.158;16.464;2023-02-02T00:30:12;2.80;99.90
65044;DHT22;51617;48.158;16.464;2023-02-02T00:32:38;2.80;99.90
65044;DHT22;51617;48.158;16.464;2023-02-02T00:35:06;2.70;99.90
65044;DHT22;51617;48.158;16.464;2023-02-02T00:37:32;2.80;99.90
65044;DHT22;51617;48.158;16.464;2023-02-02T00:39:57;2.70;99.90
65044;DHT22;51617;48.158;16.464;2023-02-02T00:42:23;2.80;99.90
65044;DHT22;51617;48.158;16.464;2023-02-02T00:44:49;2.90;99.90
65044;DHT22;51617;48.158;16.464;2023-02-02T00:47:33;3.00;99.90
65044;DHT22;51617;48.158;16.464;2023-02-02T00:49:59;3.10;99.90
65044;DHT22;51617;48.158;16.464;2023-02-02T00:52:24;3.20;99.90
65044;DHT22;51617;48.158;16.464;2023-02-02T00:54:50;3.20;99.90
65044;DHT22;51617;48.158;16.464;2023-02-02T00:57:16;3.30;99.90
65044;DHT22;51617;48.158;16.464;2023-02-02T00:59:42;3.40;99.90
65044;DHT22;51617;48.158;16.464;2023-02-02T01:02:11;3.40;99.90
65044;DHT22;51617;48.158;16.464;2023-02-02T01:04:37;3.50;99.90
65044;DHT22;51617;48.158;16.464;2023-02-02T01:07:03;3.50;99.90
65044;DHT22;51617;48.158;16.464;2023-02-02T01:09:29;3.50;99.90
65044;DHT22;51617;48.158;16.464;2023-02-02T01:11:55;3.60;99.90
65044;DHT22;51617;48.158;16.464;2023-02-02T01:14:20;3.70;99.90
65044;DHT22;51617;48.158;16.464;2023-02-02T01:16:46;3.60;99.90
65044;DHT22;51617;48.158;16.464;2023-02-02T01:19:13;3.60;99.90
65044;DHT22;51617;48.158;16.464;2023-02-02T01:21:39;3.60;99.90
65044;DHT22;51617;48.158;16.464;2023-02-02T01:24:05;3.60;99.90
65044;DHT22;51617;48.158;16.464;2023-02-02T01:26:31;3.60;99.90
65044;DHT22;51617;48.158;16.464;2023-02-02T01:28:57;3.60;99.90
65044;DHT22;51617;48.158;16.464;2023-02-02T01:31:23;3.70;99.90
65044;DHT22;51617;48.158;16.464;2023-02-02T01:33:49;3.70;99.90
65044;DHT22;51617;48.158;16.464;2023-02-02T01:36:18;3.60;99.90
65044;DHT22;51617;48.158;16.464;2023-02-02T01:38:45;3.50;99.90
65044;DHT22;51617;48.158;16.464;2023-02-02T01:41:17;3.50;99.90
65044;DHT22;51617;48.158;16.464;2023-02-02T01:46:29;3.50;99.90
65044;DHT22;51617;48.158;16.464;2023-02-02T01:49:00;3.60;99.90
65044;DHT22;51617;48.158;16.464;2023-02-02T01:51:52;3.50;99.90
65044;DHT22;51617;48.158;16.464;2023-02-02T01:54:24;3.50;99.90
65044;DHT22;51617;48.158;16.464;2023-02-02T01:56:57;3.50;99.90
65044;DHT22;51617;48.158;16.464;2023-02-02T01:59:25;3.50;99.90
65044;DHT22;51617;48.158;16.464;2023-02-02T02:01:52;3.60;99.90
65044;DHT22;51617;48.158;16.464;2023-02-02T02:04:20;3.60;99.90
65044;DHT22;51617;48.158;16.464;2023-02-02T02:06:47;3.60;99.90
65044;DHT22;51617;48.158;16.464;2023-02-02T02:09:13;3.60;99.90
65044;DHT22;51617;48.158;16.464;2023-02-02T02:11:38;3.70;99.90
65044;DHT22;51617;48.158;16.464;2023-02-02T02:14:09;3.70;99.90
65044;DHT22;51617;48.158;16.464;2023-02-02T02:32:37;3.90;99.90
65044;DHT22;51617;48.158;16.464;2023-02-02T02:37:49;3.80;99.90
65044;DHT22;51617;48.158;16.464;2023-02-02T02:43:08;3.80;99.90
65044;DHT22;51617;48.158;16.464;2023-02-02T02:45:37;3.80;99.90
65044;DHT22;51617;48.158;16.464;2023-02-02T02:48:04;3.90;99.90
65044;DHT22;51617;48.158;16.464;2023-02-02T02:50:29;3.80;99.90
65044;DHT22;51617;48.158;16.464;2023-02-02T02:53:07;3.80;99.90
65044;DHT22;51617;48.158;16.464;2023-02-02T03:01:20;3.80;99.90
65044;DHT22;51617;48.158;16.464;2023-02-02T03:04:28;3.90;99.90
65044;DHT22;51617;48.158;16.464;2023-02-02T03:07:09;3.80;99.90
65044;DHT22;51617;48.158;16.464;2023-02-02T03:09:40;3.80;99.90
65044;DHT22;51617;48.158;16.464;2023-02-02T03:12:07;3.80;99.90
65044;DHT22;51617;48.158;16.464;2023-02-02T03:14:35;3.80;99.90
65044;DHT22;51617;48.158;16.464;2023-02-02T03:17:00;3.90;99.90
65044;DHT22;51617;48.158;16.464;2023-02-02T03:19:26;3.90;99.90
65044;DHT22;51617;48.158;16.464;2023-02-02T03:21:52;4.00;99.90
65044;DHT22;51617;48.158;16.464;2023-02-02T03:24:17;3.90;99.90
65044;DHT22;51617;48.158;16.464;2023-02-02T03:26:44;3.90;99.90
65044;DHT22;51617;48.158;16.464;2023-02-02T03:29:10;4.00;99.90
65044;DHT22;51617;48.158;16.464;2023-02-02T03:31:35;4.10;99.90
65044;DHT22;51617;48.158;16.464;2023-02-02T03:34:01;4.10;99.90
65044;DHT22;51617;48.158;16.464;2023-02-02T03:36:27;4.10;99.90
65044;DHT22;51617;48.158;16.464;2023-02-02T03:38:53;4.00;99.90
65044;DHT22;51617;48.158;16.464;2023-02-02T03:41:18;4.10;99.90
65044;DHT22;51617;48.158;16.464;2023-02-02T03:43:44;4.10;99.90
65044;DHT22;51617;48.158;16.464;2023-02-02T03:46:10;4.10;99.90
65044;DHT22;51617;48.158;16.464;2023-02-02T03:48:37;4.20;99.90
65044;DHT22;51617;48.158;16.464;2023-02-02T03:51:09;4.20;99.90
65044;DHT22;51617;48.158;16.464;2023-02-02T03:53:41;4.20;99.90
65044;DHT22;51617;48.158;16.464;2023-02-02T03:56:14;4.10;99.90
65044;DHT22;51617;48.158;16.464;2023-02-02T03:58:40;4.30;99.90
65044;DHT22;51617;48.158;16.464;2023-02-02T04:01:09;4.20;99.90
65044;DHT22;51617;48.158;16.464;2023-02-02T04:03:35;4.30;99.90
65044;DHT22;51617;48.158;16.464;2023-02-02T04:06:01;4.40;99.90
65044;DHT22;51617;48.158;16.464;2023-02-02T04:08:27;4.40;99.90
65044;DHT22;51617;48.158;16.464;2023-02-02T04:10:53;4.50;99.90
65044;DHT22;51617;48.158;16.464;2023-02-02T04:13:19;4.40;99.90
65044;DHT22;51617;48.158;16.464;2023-02-02T04:15:45;4.50;99.90
65044;DHT22;51617;48.158;16.464;2023-02-02T04:18:11;4.40;99.90
65044;DHT22;51617;48.158;16.464;2023-02-02T04:20:36;4.40;99.90
65044;DHT22;51617;48.158;16.464;2023-02-02T04:23:02;4.30;99.90
65044;DHT22;51617;48.158;16.464;2023-02-02T04:25:28;4.30;99.90
65044;DHT22;51617;48.158;16.464;2023-02-02T04:27:53;4.30;99.90
65044;DHT22;51617;48.158;16.464;2023-02-02T04:30:19;4.20;99.90
65044;DHT22;51617;48.158;16.464;2023-02-02T04:32:45;4.20;99.90
65044;DHT22;51617;48.158;16.464;2023-02-02T04:35:11;4.20;99.90
65044;DHT22;51617;48.158;16.464;2023-02-02T04:37:37;4.20;99.90
65044;DHT22;51617;48.158;16.464;2023-02-02T04:40:03;4.20;99.90
65044;DHT22;51617;48.158;16.464;2023-02-02T04:42:29;4.30;99.90
65044;DHT22;51617;48.158;16.464;2023-02-02T04:44:56;4.30;99.90
65044;DHT22;51617;48.158;16.464;2023-02-02T04:47:22;4.30;99.90
65044;DHT22;51617;48.158;16.464;2023-02-02T04:49:48;4.30;99.90
65044;DHT22;51617;48.158;16.464;2023-02-02T04:52:13;4.30;99.90
65044;DHT22;51617;48.158;16.464;2023-02-02T04:54:39;4.40;99.90
65044;DHT22;51617;48.158;16.464;2023-02-02T04:57:05;4.40;99.90
65044;DHT22;51617;48.158;16.464;2023-02-02T04:59:30;4.30;99.90
65044;DHT22;51617;48.158;16.464;2023-02-02T05:01:59;4.40;99.90
65044;DHT22;51617;48.158;16.464;2023-02-02T05:04:25;4.40;99.90
65044;DHT22;51617;48.158;16.464;2023-02-02T05:06:51;4.40;99.90
65044;DHT22;51617;48.158;16.464;2023-02-02T05:09:16;4.40;99.90
65044;DHT22;51617;48.158;16.464;2023-02-02T05:11:42;4.40;99.90
65044;DHT22;51617;48.158;16.464;2023-02-02T05:14:09;4.50;99.90
65044;DHT22;51617;48.158;16.464;2023-02-02T05:16:35;4.60;99.90
65044;DHT22;51617;48.158;16.464;2023-02-02T05:19:01;4.70;99.90
65044;DHT22;51617;48.158;16.464;2023-02-02T05:21:26;5.00;99.90
65044;DHT22;51617;48.158;16.464;2023-02-02T05:23:52;5.10;99.90
65044;DHT22;51617;48.158;16.464;2023-02-02T05:26:24;5.30;99.90
65044;DHT22;51617;48.158;16.464;2023-02-02T05:28:49;5.30;99.20
65044;DHT22;51617;48.158;16.464;2023-02-02T05:31:16;5.40;98.60
65044;DHT22;51617;48.158;16.464;2023-02-02T05:33:42;5.20;98.60
65044;DHT22;51617;48.158;16.464;2023-02-02T05:36:08;5.10;98.70
65044;DHT22;51617;48.158;16.464;2023-02-02T05:38:34;5.00;98.70
65044;DHT22;51617;48.158;16.464;2023-02-02T05:41:00;5.00;98.70
65044;DHT22;51617;48.158;16.464;2023-02-02T05:43:27;4.90;98.70
65044;DHT22;51617;48.158;16.464;2023-02-02T05:45:53;4.90;98.80
65044;DHT22;51617;48.158;16.464;2023-02-02T05:48:19;4.80;98.90
65044;DHT22;51617;48.158;16.464;2023-02-02T05:51:15;4.80;98.90
65044;DHT22;51617;48.158;16.464;2023-02-02T05:53:40;4.80;98.90
65044;DHT22;51617;48.158;16.464;2023-02-02T05:56:06;4.90;99.10
65044;DHT22;51617;48.158;16.464;2023-02-02T05:58:31;4.80;98.80
65044;DHT22;51617;48.158;16.464;2023-02-02T06:00:57;4.70;98.90
65044;DHT22;51617;48.158;16.464;2023-02-02T06:03:23;4.70;99.00
65044;DHT22;51617;48.158;16.464;2023-02-02T06:05:48;4.70;99.10
65044;DHT22;51617;48.158;16.464;2023-02-02T06:08:14;4.70;99.10
65044;DHT22;51617;48.158;16.464;2023-02-02T06:10:40;4.70;98.90
65044;DHT22;51617;48.158;16.464;2023-02-02T06:13:06;4.70;98.90
65044;DHT22;51617;48.158;16.464;2023-02-02T06:15:32;4.70;99.00
65044;DHT22;51617;48.158;16.464;2023-02-02T06:17:59;4.70;98.80
65044;DHT22;51617;48.158;16.464;2023-02-02T06:20:24;4.70;98.90
65044;DHT22;51617;48.158;16.464;2023-02-02T06:22:50;4.70;98.80
65044;DHT22;51617;48.158;16.464;2023-02-02T06:25:16;4.70;98.70
65044;DHT22;51617;48.158;16.464;2023-02-02T06:27:42;4.70;98.70
65044;DHT22;51617;48.158;16.464;2023-02-02T06:30:11;4.70;98.70
65044;DHT22;51617;48.158;16.464;2023-02-02T06:32:37;4.70;98.80
65044;DHT22;51617;48.158;16.464;2023-02-02T06:35:04;4.70;98.90
65044;DHT22;51617;48.158;16.464;2023-02-02T06:37:29;4.70;98.90
65044;DHT22;51617;48.158;16.464;2023-02-02T06:39:55;4.70;98.90
65044;DHT22;51617;48.158;16.464;2023-02-02T06:42:21;4.70;99.30
65044;DHT22;51617;48.158;16.464;2023-02-02T06:44:46;4.90;99.00
65044;DHT22;51617;48.158;16.464;2023-02-02T06:47:12;4.90;98.80
65044;DHT22;51617;48.158;16.464;2023-02-02T06:49:38;4.90;98.70
65044;DHT22;51617;48.158;16.464;2023-02-02T06:52:04;4.90;98.80
65044;DHT22;51617;48.158;16.464;2023-02-02T06:54:29;5.00;98.80
65044;DHT22;51617;48.158;16.464;2023-02-02T06:56:55;5.00;98.70
65044;DHT22;51617;48.158;16.464;2023-02-02T06:59:21;5.00;98.70
65044;DHT22;51617;48.158;16.464;2023-02-02T07:01:49;5.10;98.50
65044;DHT22;51617;48.158;16.464;2023-02-02T07:04:18;5.20;98.30
65044;DHT22;51617;48.158;16.464;2023-02-02T07:06:44;5.10;98.20
65044;DHT22;51617;48.158;16.464;2023-02-02T07:09:10;5.20;98.50
65044;DHT22;51617;48.158;16.464;2023-02-02T07:11:36;5.10;98.20
65044;DHT22;51617;48.158;16.464;2023-02-02T07:14:03;5.30;98.20
65044;DHT22;51617;48.158;16.464;2023-02-02T07:16:29;5.30;98.00
65044;DHT22;51617;48.158;16.464;2023-02-02T07:18:55;5.40;97.90
65044;DHT22;51617;48.158;16.464;2023-02-02T07:21:23;5.50;97.60
65044;DHT22;51617;48.158;16.464;2023-02-02T07:23:50;5.50;97.40
65044;DHT22;51617;48.158;16.464;2023-02-02T07:26:17;5.50;97.40
65044;DHT22;51617;48.158;16.464;2023-02-02T07:28:43;5.60;97.40
65044;DHT22;51617;48.158;16.464;2023-02-02T07:31:25;5.50;97.00
65044;DHT22;51617;48.158;16.464;2023-02-02T07:33:52;5.60;97.10
65044;DHT22;51617;48.158;16.464;2023-02-02T07:36:20;5.60;97.00
65044;DHT22;51617;48.158;16.464;2023-02-02T07:38:47;5.60;97.10
65044;DHT22;51617;48.158;16.464;2023-02-02T07:41:14;5.60;96.90
65044;DHT22;51617;48.158;16.464;2023-02-02T07:43:40;5.70;96.80
65044;DHT22;51617;48.158;16.464;2023-02-02T07:46:07;5.60;96.90
65044;DHT22;51617;48.158;16.464;2023-02-02T07:48:35;5.70;96.30
65044;DHT22;51617;48.158;16.464;2023-02-02T07:51:02;5.70;96.70
65044;DHT22;51617;48.158;16.464;2023-02-02T07:53:28;5.70;96.30
65044;DHT22;51617;48.158;16.464;2023-02-02T07:56:25;5.80;96.20
65044;DHT22;51617;48.158;16.464;2023-02-02T07:58:54;5.80;95.90
65044;DHT22;51617;48.158;16.464;2023-02-02T08:01:20;5.80;96.10
65044;DHT22;51617;48.158;16.464;2023-02-02T08:03:48;5.80;96.00
65044;DHT22;51617;48.158;16.464;2023-02-02T08:06:27;5.80;96.20
65044;DHT22;51617;48.158;16.464;2023-02-02T08:08:53;5.80;96.10
65044;DHT22;51617;48.158;16.464;2023-02-02T08:11:20;5.90;95.90
65044;DHT22;51617;48.158;16.464;2023-02-02T08:13:51;5.90;95.90
65044;DHT22;51617;48.158;16.464;2023-02-02T08:16:18;5.80;96.20
65044;DHT22;51617;48.158;16.464;2023-02-02T08:18:45;5.80;96.30
65044;DHT22;51617;48.158;16.464;2023-02-02T08:21:11;5.80;96.00
65044;DHT22;51617;48.158;16.464;2023-02-02T08:23:38;5.90;95.90
65044;DHT22;51617;48.158;16.464;2023-02-02T08:26:09;5.90;95.90
65044;DHT22;51617;48.158;16.464;2023-02-02T08:28:36;6.00;95.90
65044;DHT22;51617;48.158;16.464;2023-02-02T08:31:25;6.00;95.80
65044;DHT22;51617;48.158;16.464;2023-02-02T08:33:52;6.10;95.40
65044;DHT22;51617;48.158;16.464;2023-02-02T08:36:23;6.10;95.10
65044;DHT22;51617;48.158;16.464;2023-02-02T08:38:50;6.20;95.00
65044;DHT22;51617;48.158;16.464;2023-02-02T08:41:19;6.30;94.90
65044;DHT22;51617;48.158;16.464;2023-02-02T08:43:45;6.40;95.10
65044;DHT22;51617;48.158;16.464;2023-02-02T08:46:13;6.40;94.70
65044;DHT22;51617;48.158;16.464;2023-02-02T08:48:39;6.30;95.00
65044;DHT22;51617;48.158;16.464;2023-02-02T08:51:06;6.40;94.90
65044;DHT22;51617;48.158;16.464;2023-02-02T08:53:32;6.40;94.50
65044;DHT22;51617;48.158;16.464;2023-02-02T08:56:05;6.40;94.60
65044;DHT22;51617;48.158;16.464;2023-02-02T08:58:32;6.30;94.30
65044;DHT22;51617;48.158;16.464;2023-02-02T09:03:40;6.40;94.40
65044;DHT22;51617;48.158;16.464;2023-02-02T09:06:11;6.50;93.90
65044;DHT22;51617;48.158;16.464;2023-02-02T09:08:38;6.30;93.70
65044;DHT22;51617;48.158;16.464;2023-02-02T09:11:09;6.20;94.40
65044;DHT22;51617;48.158;16.464;2023-02-02T09:13:36;6.20;94.40
65044;DHT22;51617;48.158;16.464;2023-02-02T09:16:04;6.30;94.40
65044;DHT22;51617;48.158;16.464;2023-02-02T09:18:30;6.30;94.40
65044;DHT22;51617;48.158;16.464;2023-02-02T09:20:59;6.30;94.40
65044;DHT22;51617;48.158;16.464;2023-02-02T09:23:25;6.40;94.10
65044;DHT22;51617;48.158;16.464;2023-02-02T09:25:53;6.50;94.20
65044;DHT22;51617;48.158;16.464;2023-02-02T09:28:19;6.40;94.30
65044;DHT22;51617;48.158;16.464;2023-02-02T09:30:44;6.60;93.70
65044;DHT22;51617;48.158;16.464;2023-02-02T09:33:10;6.50;93.90
65044;DHT22;51617;48.158;16.464;2023-02-02T09:35:36;6.40;93.90
65044;DHT22;51617;48.158;16.464;2023-02-02T09:38:01;6.50;93.90
65044;DHT22;51617;48.158;16.464;2023-02-02T09:40:30;6.50;94.10
65044;DHT22;51617;48.158;16.464;2023-02-02T09:48:48;6.50;93.70
65044;DHT22;51617;48.158;16.464;2023-02-02T09:51:21;6.40;93.80
65044;DHT22;51617;48.158;16.464;2023-02-02T09:53:55;6.30;93.60
65044;DHT22;51617;48.158;16.464;2023-02-02T09:58:55;6.40;93.70
65044;DHT22;51617;48.158;16.464;2023-02-02T10:01:32;6.30;94.00
65044;DHT22;51617;48.158;16.464;2023-02-02T10:04:20;6.30;93.80
65044;DHT22;51617;48.158;16.464;2023-02-02T10:06:56;6.50;93.90
65044;DHT22;51617;48.158;16.464;2023-02-02T10:20:29;6.50;94.10
65044;DHT22;51617;48.158;16.464;2023-02-02T10:23:02;6.50;93.90
65044;DHT22;51617;48.158;16.464;2023-02-02T10:25:32;6.60;93.40
65044;DHT22;51617;48.158;16.464;2023-02-02T10:28:07;6.60;93.30
65044;DHT22;51617;48.158;16.464;2023-02-02T10:30:45;6.60;93.60
65044;DHT22;51617;48.158;16.464;2023-02-02T10:38:46;6.50;93.60
65044;DHT22;51617;48.158;16.464;2023-02-02T10:41:42;6.60;93.40
65044;DHT22;51617;48.158;16.464;2023-02-02T10:44:18;6.60;93.40
65044;DHT22;51617;48.158;16.464;2023-02-02T10:46:48;6.80;93.30
65044;DHT22;51617;48.158;16.464;2023-02-02T10:49:34;6.80;93.30
65044;DHT22;51617;48.158;16.464;2023-02-02T11:02:46;6.70;93.00
65044;DHT22;51617;48.158;16.464;2023-02-02T11:05:21;6.70;92.90
65044;DHT22;51617;48.158;16.464;2023-02-02T11:10:54;6.80;93.10
65044;DHT22;51617;48.158;16.464;2023-02-02T11:13:31;6.70;92.90
65044;DHT22;51617;48.158;16.464;2023-02-02T11:18:39;6.70;92.90
65044;DHT22;51617;48.158;16.464;2023-02-02T11:21:32;6.70;93.00
65044;DHT22;51617;48.158;16.464;2023-02-02T11:31:54;6.60;92.90
65044;DHT22;51617;48.158;16.464;2023-02-02T11:34:25;6.60;93.00
65044;DHT22;51617;48.158;16.464;2023-02-02T11:39:25;6.70;93.70
65044;DHT22;51617;48.158;16.464;2023-02-02T11:42:09;6.80;93.50
65044;DHT22;51617;48.158;16.464;2023-02-02T11:44:37;6.60;93.10
65044;DHT22;51617;48.158;16.464;2023-02-02T11:47:04;6.50;93.20
65044;DHT22;51617;48.158;16.464;2023-02-02T11:49:35;6.40;93.60
65044;DHT22;51617;48.158;16.464;2023-02-02T11:52:04;6.50;93.60
65044;DHT22;51617;48.158;16.464;2023-02-02T11:54:34;6.40;93.70
65044;DHT22;51617;48.158;16.464;2023-02-02T11:57:02;6.50;93.70
65044;DHT22;51617;48.158;16.464;2023-02-02T11:59:34;6.40;93.90
65044;DHT22;51617;48.158;16.464;2023-02-02T12:04:48;6.50;94.00
65044;DHT22;51617;48.158;16.464;2023-02-02T12:09:47;6.50;94.10
65044;DHT22;51617;48.158;16.464;2023-02-02T12:15:28;6.50;94.00
65044;DHT22;51617;48.158;16.464;2023-02-02T12:26:30;6.50;94.20
65044;DHT22;51617;48.158;16.464;2023-02-02T12:29:19;6.50;94.00
65044;DHT22;51617;48.158;16.464;2023-02-02T12:56:01;6.60;94.00
65044;DHT22;51617;48.158;16.464;2023-02-02T12:58:55;6.60;93.90
65044;DHT22;51617;48.158;16.464;2023-02-02T13:04:08;6.60;94.00
65044;DHT22;51617;48.158;16.464;2023-02-02T13:11:54;6.60;93.90
65044;DHT22;51617;48.158;16.464;2023-02-02T13:17:11;6.60;93.90
65044;DHT22;51617;48.158;16.464;2023-02-02T13:19:40;6.60;94.50
65044;DHT22;51617;48.158;16.464;2023-02-02T13:22:12;6.80;93.60
65044;DHT22;51617;48.158;16.464;2023-02-02T13:24:43;6.60;94.00
65044;DHT22;51617;48.158;16.464;2023-02-02T13:27:22;6.60;93.70
65044;DHT22;51617;48.158;16.464;2023-02-02T13:32:35;6.70;93.70
65044;DHT22;51617;48.158;16.464;2023-02-02T13:35:21;6.60;93.70
65044;DHT22;51617;48.158;16.464;2023-02-02T13:40:36;6.70;93.80
65044;DHT22;51617;48.158;16.464;2023-02-02T13:46:41;6.80;93.70
65044;DHT22;51617;48.158;16.464;2023-02-02T13:49:19;6.80;93.70
65044;DHT22;51617;48.158;16.464;2023-02-02T14:00:15;6.90;93.60
65044;DHT22;51617;48.158;16.464;2023-02-02T14:02:45;6.80;93.80
65044;DHT22;51617;48.158;16.464;2023-02-02T14:05:28;6.60;93.90
65044;DHT22;51617;48.158;16.464;2023-02-02T14:08:07;6.60;94.30
65044;DHT22;51617;48.158;16.464;2023-02-02T14:10:55;6.60;94.00
65044;DHT22;51617;48.158;16.464;2023-02-02T14:18:59;6.60;94.20
65044;DHT22;51617;48.158;16.464;2023-02-02T14:26:58;6.60;94.20
65044;DHT22;51617;48.158;16.464;2023-02-02T14:31:57;6.40;94.40
65044;DHT22;51617;48.158;16.464;2023-02-02T14:34:31;6.40;94.30
65044;DHT22;51617;48.158;16.464;2023-02-02T14:53:05;6.30;94.60
65044;DHT22;51617;48.158;16.464;2023-02-02T14:55:35;6.30;94.80
65044;DHT22;51617;48.158;16.464;2023-02-02T14:58:04;6.40;94.60
65044;DHT22;51617;48.158;16.464;2023-02-02T15:00:32;6.30;94.80
65044;DHT22;51617;48.158;16.464;2023-02-02T15:03:34;6.20;95.00
65044;DHT22;51617;48.158;16.464;2023-02-02T15:06:11;6.20;95.00
65044;DHT22;51617;48.158;16.464;2023-02-02T15:08:38;6.20;95.10
65044;DHT22;51617;48.158;16.464;2023-02-02T15:11:06;6.20;95.10
65044;DHT22;51617;48.158;16.464;2023-02-02T15:14:12;6.10;95.30
65044;DHT22;51617;48.158;16.464;2023-02-02T15:16:40;6.10;95.50
65044;DHT22;51617;48.158;16.464;2023-02-02T15:19:29;6.10;95.50
65044;DHT22;51617;48.158;16.464;2023-02-02T15:22:11;6.10;95.50
65044;DHT22;51617;48.158;16.464;2023-02-02T15:24:44;5.90;95.60
65044;DHT22;51617;48.158;16.464;2023-02-02T15:27:18;5.90;95.80
65044;DHT22;51617;48.158;16.464;2023-02-02T15:29:48;5.90;95.70
65044;DHT22;51617;48.158;16.464;2023-02-02T15:32:20;5.90;95.70
65044;DHT22;51617;48.158;16.464;2023-02-02T15:35:10;5.90;95.90
65044;DHT22;51617;48.158;16.464;2023-02-02T15:37:39;5.90;95.90
65044;DHT22;51617;48.158;16.464;2023-02-02T15:40:20;5.80;95.90
65044;DHT22;51617;48.158;16.464;2023-02-02T15:43:01;5.80;96.10
65044;DHT22;51617;48.158;16.464;2023-02-02T15:46:09;5.80;96.00
65044;DHT22;51617;48.158;16.464;2023-02-02T15:48:36;5.70;96.10
65044;DHT22;51617;48.158;16.464;2023-02-02T15:51:15;5.60;96.20
65044;DHT22;51617;48.158;16.464;2023-02-02T15:58:50;5.60;96.50
65044;DHT22;51617;48.158;16.464;2023-02-02T16:01:21;5.50;96.60
65044;DHT22;51617;48.158;16.464;2023-02-02T16:04:07;5.50;96.50
65044;DHT22;51617;48.158;16.464;2023-02-02T16:06:39;5.50;96.60
65044;DHT22;51617;48.158;16.464;2023-02-02T16:09:06;5.50;96.60
65044;DHT22;51617;48.158;16.464;2023-02-02T16:11:32;5.50;96.60
65044;DHT22;51617;48.158;16.464;2023-02-02T16:13:59;5.50;96.60
65044;DHT22;51617;48.158;16.464;2023-02-02T16:16:34;5.40;96.60
65044;DHT22;51617;48.158;16.464;2023-02-02T16:21:44;5.40;96.70
65044;DHT22;51617;48.158;16.464;2023-02-02T16:24:23;5.40;96.80
65044;DHT22;51617;48.158;16.464;2023-02-02T16:26:52;5.40;96.90
65044;DHT22;51617;48.158;16.464;2023-02-02T16:29:19;5.40;96.90
65044;DHT22;51617;48.158;16.464;2023-02-02T16:31:46;5.40;97.00
65044;DHT22;51617;48.158;16.464;2023-02-02T16:37:13;5.30;97.10
65044;DHT22;51617;48.158;16.464;2023-02-02T16:39:39;5.30;97.20
65044;DHT22;51617;48.158;16.464;2023-02-02T16:42:26;5.20;97.30
65044;DHT22;51617;48.158;16.464;2023-02-02T16:44:53;5.20;97.40
65044;DHT22;51617;48.158;16.464;2023-02-02T16:52:47;5.20;97.40
65044;DHT22;51617;48.158;16.464;2023-02-02T16:55:16;5.20;97.50
65044;DHT22;51617;48.158;16.464;2023-02-02T16:57:44;5.10;97.60
65044;DHT22;51617;48.158;16.464;2023-02-02T17:00:21;5.10;97.60
65044;DHT22;51617;48.158;16.464;2023-02-02T17:02:50;5.10;97.60
65044;DHT22;51617;48.158;16.464;2023-02-02T17:05:30;5.00;97.70
65044;DHT22;51617;48.158;16.464;2023-02-02T17:07:59;5.00;97.70
65044;DHT22;51617;48.158;16.464;2023-02-02T17:10:41;5.10;97.50
65044;DHT22;51617;48.158;16.464;2023-02-02T17:13:37;5.10;97.40
65044;DHT22;51617;48.158;16.464;2023-02-02T17:16:03;5.10;97.40
65044;DHT22;51617;48.158;16.464;2023-02-02T17:18:30;5.10;97.20
65044;DHT22;51617;48.158;16.464;2023-02-02T17:20:57;5.00;97.40
65044;DHT22;51617;48.158;16.464;2023-02-02T17:23:30;5.00;97.80
65044;DHT22;51617;48.158;16.464;2023-02-02T17:25:56;5.00;97.50
65044;DHT22;51617;48.158;16.464;2023-02-02T17:28:24;5.00;97.60
65044;DHT22;51617;48.158;16.464;2023-02-02T17:31:01;5.10;97.50
65044;DHT22;51617;48.158;16.464;2023-02-02T17:33:27;5.00;97.50
65044;DHT22;51617;48.158;16.464;2023-02-02T17:35:53;5.00;97.50
65044;DHT22;51617;48.158;16.464;2023-02-02T17:38:20;5.00;97.50
65044;DHT22;51617;48.158;16.464;2023-02-02T17:40:47;5.00;97.50
65044;DHT22;51617;48.158;16.464;2023-02-02T17:43:14;4.90;97.50
65044;DHT22;51617;48.158;16.464;2023-02-02T17:45:40;4.90;97.50
65044;DHT22;51617;48.158;16.464;2023-02-02T17:48:11;4.90;97.50
65044;DHT22;51617;48.158;16.464;2023-02-02T17:50:38;4.90;97.40
65044;DHT22;51617;48.158;16.464;2023-02-02T17:53:05;4.90;97.20
65044;DHT22;51617;48.158;16.464;2023-02-02T17:55:41;5.00;97.20
65044;DHT22;51617;48.158;16.464;2023-02-02T17:58:09;4.90;97.20
65044;DHT22;51617;48.158;16.464;2023-02-02T18:00:35;4.90;97.20
65044;DHT22;51617;48.158;16.464;2023-02-02T18:05:38;5.00;96.90
65044;DHT22;51617;48.158;16.464;2023-02-02T18:08:05;5.00;97.00
65044;DHT22;51617;48.158;16.464;2023-02-02T18:10:31;5.00;97.00
65044;DHT22;51617;48.158;16.464;2023-02-02T18:12:58;4.90;97.10
65044;DHT22;51617;48.158;16.464;2023-02-02T18:15:24;5.00;97.00
65044;DHT22;51617;48.158;16.464;2023-02-02T18:17:49;5.00;97.20
65044;DHT22;51617;48.158;16.464;2023-02-02T18:20:16;4.90;97.20
65044;DHT22;51617;48.158;16.464;2023-02-02T18:22:42;4.90;97.30
65044;DHT22;51617;48.158;16.464;2023-02-02T18:25:09;4.80;97.30
65044;DHT22;51617;48.158;16.464;2023-02-02T18:27:36;4.80;97.20
65044;DHT22;51617;48.158;16.464;2023-02-02T18:30:02;4.90;97.20
65044;DHT22;51617;48.158;16.464;2023-02-02T18:32:29;4.80;97.20
65044;DHT22;51617;48.158;16.464;2023-02-02T18:34:54;4.90;97.30
65044;DHT22;51617;48.158;16.464;2023-02-02T18:37:22;4.80;97.30
65044;DHT22;51617;48.158;16.464;2023-02-02T18:39:50;4.80;97.20
65044;DHT22;51617;48.158;16.464;2023-02-02T18:42:23;4.80;97.30
65044;DHT22;51617;48.158;16.464;2023-02-02T18:44:49;4.80;97.20
65044;DHT22;51617;48.158;16.464;2023-02-02T18:47:15;4.80;97.20
65044;DHT22;51617;48.158;16.464;2023-02-02T18:49:41;4.80;97.30
65044;DHT22;51617;48.158;16.464;2023-02-02T18:52:08;4.90;97.10
65044;DHT22;51617;48.158;16.464;2023-02-02T18:54:34;4.90;97.00
65044;DHT22;51617;48.158;16.464;2023-02-02T18:57:01;4.90;96.90
65044;DHT22;51617;48.158;16.464;2023-02-02T18:59:29;4.80;96.90
65044;DHT22;51617;48.158;16.464;2023-02-02T19:01:57;4.90;96.90
65044;DHT22;51617;48.158;16.464;2023-02-02T19:04:23;4.90;96.90
65044;DHT22;51617;48.158;16.464;2023-02-02T19:06:52;4.90;96.50